Time;durP1;ratioP1;P1;durP2;ratioP2;P2;SDS_P1;SDS_P2;PMS_P1;PMS_P2;Temp;Humidity;BMP_temperature;BMP_pressure;BME280_temperature;BME280_humidity;BME280_pressure;Samples;Min_cycle;Max_cycle;Signal;HPM_P1;HPM_P2
2023/08/07 00:01:52;;;;;;;3.10;1.88;;;14.80;99.90;;;;;;4989246;28;20121;-53
2023/08/07 00:04:17;;;;;;;1.92;1.83;;;14.80;99.90;;;;;;4982667;28;20039;-56
2023/08/07 00:06:43;;;;;;;2.75;2.13;;;14.80;99.90;;;;;;4988773;28;20088;-55
2023/08/07 00:09:08;;;;;;;4.05;2.03;;;14.80;99.90;;;;;;4985857;28;20571;-55
2023/08/07 00:11:36;;;;;;;3.42;1.88;;;14.80;99.90;;;;;;4982026;28;20057;-55
2023/08/07 00:14:01;;;;;;;6.03;1.90;;;14.80;99.90;;;;;;4983837;28;20022;-58
2023/08/07 00:16:27;;;;;;;1.60;1.50;;;14.70;99.90;;;;;;4982999;28;20571;-58
2023/08/07 00:18:55;;;;;;;5.43;2.38;;;14.70;99.90;;;;;;4972597;28;20085;-54
2023/08/07 00:21:22;;;;;;;2.80;1.88;;;14.70;99.90;;;;;;4987262;28;20022;-53
2023/08/07 00:23:47;;;;;;;1.98;1.75;;;14.70;99.90;;;;;;4983675;28;20101;-60
2023/08/07 00:26:13;;;;;;;3.03;1.48;;;14.70;99.90;;;;;;4983991;28;20493;-54
2023/08/07 00:28:39;;;;;;;2.55;1.92;;;14.70;99.90;;;;;;4986678;28;20037;-55
2023/08/07 00:31:04;;;;;;;2.97;1.60;;;14.60;99.90;;;;;;4990354;28;20042;-53
2023/08/07 00:33:30;;;;;;;3.08;1.73;;;14.60;99.90;;;;;;4989002;28;20022;-57
2023/08/07 00:35:55;;;;;;;3.90;1.58;;;14.60;99.90;;;;;;4986598;28;20026;-56
2023/08/07 00:38:21;;;;;;;2.63;1.50;;;14.60;99.90;;;;;;4988796;28;20061;-55
2023/08/07 00:40:49;;;;;;;1.67;1.58;;;14.60;99.90;;;;;;4980939;28;20110;-55
2023/08/07 00:43:15;;;;;;;2.40;1.38;;;14.60;99.90;;;;;;4986780;28;20065;-54
2023/08/07 00:45:42;;;;;;;1.58;1.38;;;14.50;99.90;;;;;;4982296;28;20073;-54
2023/08/07 00:48:08;;;;;;;1.80;1.70;;;14.50;99.90;;;;;;4987039;28;20044;-57
2023/08/07 00:50:34;;;;;;;4.70;1.35;;;14.50;99.90;;;;;;4981985;28;20068;-54
2023/08/07 00:53:00;;;;;;;2.05;1.55;;;14.50;99.90;;;;;;4982714;28;20096;-54
2023/08/07 00:55:26;;;;;;;3.55;1.27;;;14.50;99.90;;;;;;4981116;28;20456;-54
2023/08/07 00:57:52;;;;;;;1.77;1.45;;;14.40;99.90;;;;;;4984713;28;20038;-53
2023/08/07 01:00:20;;;;;;;2.25;1.50;;;14.40;99.90;;;;;;4979578;28;20076;-55
2023/08/07 01:02:47;;;;;;;2.70;1.80;;;14.40;99.90;;;;;;4987666;28;20026;-55
2023/08/07 01:05:12;;;;;;;3.67;1.80;;;14.40;99.90;;;;;;4981364;28;20206;-53
2023/08/07 01:07:38;;;;;;;3.70;1.52;;;14.40;99.90;;;;;;4988364;28;20065;-53
2023/08/07 01:10:06;;;;;;;3.80;1.67;;;14.40;99.90;;;;;;4985429;28;20096;-54
2023/08/07 01:12:41;;;;;;;4.22;1.70;;;14.40;99.90;;;;;;4986852;28;20034;-57
2023/08/07 01:15:18;;;;;;;2.10;1.40;;;14.30;99.90;;;;;;4985109;28;20034;-57
2023/08/07 01:17:46;;;;;;;1.52;1.42;;;14.30;99.90;;;;;;4986994;28;20055;-54
2023/08/07 01:20:11;;;;;;;2.28;1.50;;;14.30;99.90;;;;;;4985977;28;20057;-57
2023/08/07 01:22:37;;;;;;;2.28;1.90;;;14.20;99.90;;;;;;4987666;28;20065;-53
2023/08/07 01:25:03;;;;;;;2.92;1.65;;;14.20;99.90;;;;;;4984138;28;20041;-56
2023/08/07 01:27:59;;;;;;;3.08;1.50;;;14.20;99.90;;;;;;4987676;28;20022;-54
2023/08/07 01:30:38;;;;;;;2.30;1.75;;;14.20;99.90;;;;;;4987598;28;20534;-57
2023/08/07 01:33:50;;;;;;;1.58;1.45;;;14.20;99.90;;;;;;4988251;28;20026;-58
2023/08/07 01:36:17;;;;;;;2.03;1.83;;;14.10;99.90;;;;;;4981353;28;20105;-53
2023/08/07 01:38:44;;;;;;;3.35;1.38;;;14.10;99.90;;;;;;4987416;28;20105;-55
2023/08/07 01:41:10;;;;;;;2.80;1.85;;;14.10;99.90;;;;;;4984409;28;20018;-53
2023/08/07 01:43:36;;;;;;;2.60;1.33;;;14.10;99.90;;;;;;4986363;28;20374;-57
2023/08/07 01:46:02;;;;;;;2.67;1.95;;;14.10;99.90;;;;;;4983908;28;20042;-54
2023/08/07 01:48:28;;;;;;;1.50;1.35;;;14.10;99.90;;;;;;4984708;28;20026;-55
2023/08/07 01:50:54;;;;;;;1.80;1.63;;;14.10;99.90;;;;;;4983858;28;20041;-54
2023/08/07 01:53:20;;;;;;;1.48;1.27;;;14.00;99.90;;;;;;4984125;28;20169;-52
2023/08/07 01:55:45;;;;;;;3.63;1.50;;;14.00;99.90;;;;;;4981351;28;20164;-55
2023/08/07 01:58:12;;;;;;;2.95;1.52;;;14.00;99.90;;;;;;4989473;28;20489;-54
2023/08/07 02:00:37;;;;;;;1.95;1.77;;;14.00;99.90;;;;;;4980593;28;20026;-53
2023/08/07 02:03:03;;;;;;;2.72;1.60;;;14.00;99.90;;;;;;4989046;28;20041;-56
2023/08/07 02:05:29;;;;;;;1.67;1.02;;;14.00;99.90;;;;;;4976255;28;20026;-57
2023/08/07 02:07:56;;;;;;;1.40;1.10;;;13.90;99.90;;;;;;4988854;28;20101;-54
2023/08/07 02:10:22;;;;;;;1.30;1.20;;;13.90;99.90;;;;;;4981221;28;20027;-57
2023/08/07 02:12:48;;;;;;;3.40;1.30;;;13.90;99.90;;;;;;4985638;28;20363;-57
2023/08/07 02:15:13;;;;;;;2.85;1.52;;;13.90;99.90;;;;;;4985995;28;20029;-56
2023/08/07 02:17:41;;;;;;;5.43;1.33;;;13.80;99.90;;;;;;4985263;28;20094;-57
2023/08/07 02:20:07;;;;;;;2.90;1.40;;;13.80;99.90;;;;;;4985257;28;20046;-52
2023/08/07 02:22:32;;;;;;;1.75;1.30;;;13.80;99.90;;;;;;4985353;28;20046;-53
2023/08/07 02:24:58;;;;;;;2.08;1.10;;;13.80;99.90;;;;;;4982148;28;20030;-53
2023/08/07 02:27:23;;;;;;;1.42;1.27;;;13.80;99.90;;;;;;4986791;28;20447;-55
2023/08/07 02:29:50;;;;;;;3.80;1.63;;;13.80;99.90;;;;;;4973921;28;20044;-56
2023/08/07 02:32:16;;;;;;;1.95;1.60;;;13.80;99.90;;;;;;4985880;28;20038;-58
2023/08/07 02:34:42;;;;;;;1.70;1.20;;;13.70;99.90;;;;;;4986066;28;20022;-52
2023/08/07 02:37:08;;;;;;;5.05;1.75;;;13.70;99.90;;;;;;4984586;28;20025;-56
2023/08/07 02:39:33;;;;;;;2.58;1.27;;;13.70;99.90;;;;;;4987459;28;20080;-56
2023/08/07 02:41:59;;;;;;;2.10;1.42;;;13.70;99.90;;;;;;4977210;28;20026;-53
2023/08/07 02:44:24;;;;;;;1.90;1.60;;;13.70;99.90;;;;;;4988258;28;20112;-53
2023/08/07 02:46:50;;;;;;;1.63;1.52;;;13.60;99.90;;;;;;4981706;28;20519;-57
2023/08/07 02:49:15;;;;;;;2.65;1.38;;;13.60;99.90;;;;;;4980114;28;20085;-53
2023/08/07 02:51:41;;;;;;;2.17;1.30;;;13.60;99.90;;;;;;4985984;28;20019;-56
2023/08/07 02:54:07;;;;;;;1.55;1.20;;;13.60;99.90;;;;;;4988644;28;20022;-58
2023/08/07 02:56:32;;;;;;;2.33;1.52;;;13.50;99.90;;;;;;4986428;28;20019;-57
2023/08/07 02:58:59;;;;;;;2.42;1.38;;;13.50;99.90;;;;;;4988318;28;20029;-52
2023/08/07 03:01:24;;;;;;;1.50;1.40;;;13.50;99.90;;;;;;4985361;28;20035;-57
2023/08/07 03:03:50;;;;;;;2.88;1.10;;;13.50;99.90;;;;;;4986870;28;20045;-57
2023/08/07 03:06:16;;;;;;;2.72;1.55;;;13.50;99.90;;;;;;4984111;28;20023;-56
2023/08/07 03:08:42;;;;;;;2.40;1.55;;;13.50;99.90;;;;;;4991116;28;20058;-54
2023/08/07 03:11:08;;;;;;;4.88;2.08;;;13.50;99.90;;;;;;4987213;28;20044;-57
2023/08/07 03:13:34;;;;;;;1.70;1.33;;;13.50;99.90;;;;;;4989882;28;20556;-54
2023/08/07 03:16:04;;;;;;;2.40;1.27;;;13.50;99.90;;;;;;4987618;28;20033;-54
2023/08/07 03:18:30;;;;;;;1.77;1.33;;;13.50;99.90;;;;;;4989538;28;20151;-54
2023/08/07 03:20:57;;;;;;;3.03;1.77;;;13.50;99.90;;;;;;4987210;28;20025;-54
2023/08/07 03:23:23;;;;;;;4.55;1.88;;;13.50;99.90;;;;;;4988251;28;20475;-52
2023/08/07 03:25:49;;;;;;;1.45;1.20;;;13.60;99.90;;;;;;4990185;28;20512;-56
2023/08/07 03:28:15;;;;;;;2.70;1.40;;;13.60;99.90;;;;;;4990067;28;20034;-56
2023/08/07 03:30:41;;;;;;;1.48;1.33;;;13.60;99.90;;;;;;4989060;28;20093;-54
2023/08/07 03:33:07;;;;;;;2.05;1.23;;;13.60;99.90;;;;;;4990437;28;20510;-53
2023/08/07 03:35:32;;;;;;;2.88;1.38;;;13.60;99.90;;;;;;4989035;28;20034;-54
2023/08/07 03:37:58;;;;;;;1.50;1.40;;;13.60;99.90;;;;;;4991461;28;20032;-56
2023/08/07 03:40:23;;;;;;;2.25;1.60;;;13.60;99.90;;;;;;4988466;28;20034;-57
2023/08/07 03:42:49;;;;;;;1.80;1.50;;;13.60;99.90;;;;;;4981791;28;20049;-54
2023/08/07 03:45:14;;;;;;;3.85;2.22;;;13.60;99.90;;;;;;4987513;28;20121;-56
2023/08/07 03:47:40;;;;;;;2.78;1.30;;;13.60;99.90;;;;;;4983138;28;20054;-56
2023/08/07 03:50:06;;;;;;;1.30;1.20;;;13.70;99.90;;;;;;4986073;28;20027;-57
2023/08/07 03:52:32;;;;;;;2.05;1.50;;;13.70;99.90;;;;;;4980908;28;20027;-57
2023/08/07 03:54:57;;;;;;;3.05;1.40;;;13.70;99.90;;;;;;4989384;28;20037;-53
2023/08/07 03:57:23;;;;;;;1.83;1.55;;;13.70;99.90;;;;;;5002760;23;20039;-57
2023/08/07 03:59:49;;;;;;;2.28;1.67;;;13.70;99.90;;;;;;4990516;28;20023;-57
2023/08/07 04:02:14;;;;;;;1.75;1.65;;;13.70;99.90;;;;;;4981122;28;20027;-57
2023/08/07 04:04:40;;;;;;;3.28;1.30;;;13.70;99.90;;;;;;4984710;28;20455;-56
2023/08/07 04:07:05;;;;;;;1.63;1.40;;;13.70;99.90;;;;;;4987110;28;20535;-54
2023/08/07 04:09:31;;;;;;;3.15;1.58;;;13.70;99.90;;;;;;4987524;28;20026;-57
2023/08/07 04:11:57;;;;;;;1.45;1.35;;;13.70;99.90;;;;;;4990107;28;20026;-58
2023/08/07 04:14:23;;;;;;;2.03;1.50;;;13.70;99.90;;;;;;4987158;28;20041;-57
2023/08/07 04:16:49;;;;;;;5.40;2.38;;;13.70;99.90;;;;;;4988256;28;20076;-57
2023/08/07 04:19:14;;;;;;;3.55;2.33;;;13.70;99.90;;;;;;4986285;28;20039;-57
2023/08/07 04:21:40;;;;;;;2.80;1.42;;;13.70;99.90;;;;;;4987638;28;20018;-56
2023/08/07 04:24:10;;;;;;;5.63;2.13;;;13.80;99.90;;;;;;4987993;28;20038;-54
2023/08/07 04:26:36;;;;;;;3.97;2.03;;;13.80;99.90;;;;;;4983221;28;20162;-57
2023/08/07 04:29:02;;;;;;;2.67;2.38;;;13.80;99.90;;;;;;4980590;28;20027;-55
2023/08/07 04:31:27;;;;;;;2.75;1.95;;;13.80;99.90;;;;;;4983277;28;20088;-56
2023/08/07 04:33:53;;;;;;;2.35;1.95;;;13.90;99.90;;;;;;4987088;28;20091;-57
2023/08/07 04:36:20;;;;;;;4.82;1.95;;;13.90;99.90;;;;;;4984966;28;20478;-57
2023/08/07 04:38:46;;;;;;;3.75;2.00;;;13.90;99.90;;;;;;4985791;28;20029;-55
2023/08/07 04:41:12;;;;;;;5.40;1.80;;;14.00;99.90;;;;;;4990548;28;20550;-57
2023/08/07 04:43:37;;;;;;;6.30;2.42;;;14.00;99.90;;;;;;4978203;28;20027;-56
2023/08/07 04:46:03;;;;;;;2.88;1.63;;;14.00;99.90;;;;;;4988386;28;20022;-57
2023/08/07 04:48:28;;;;;;;6.93;3.17;;;14.10;99.90;;;;;;4977680;28;20027;-57
2023/08/07 04:50:54;;;;;;;4.05;2.03;;;14.10;99.90;;;;;;4990063;28;20034;-57
2023/08/07 04:53:19;;;;;;;4.68;2.00;;;14.10;99.90;;;;;;4977287;28;20030;-55
2023/08/07 04:55:46;;;;;;;6.70;2.08;;;14.10;99.90;;;;;;4987107;28;20094;-56
2023/08/07 04:58:11;;;;;;;2.90;2.40;;;14.20;99.90;;;;;;4983547;28;20034;-55
2023/08/07 05:00:37;;;;;;;3.17;1.92;;;14.20;99.90;;;;;;4985982;28;20077;-57
2023/08/07 05:03:02;;;;;;;5.07;2.00;;;14.30;99.90;;;;;;4979338;28;20070;-56
2023/08/07 05:05:28;;;;;;;4.78;2.45;;;14.30;99.90;;;;;;4981973;28;20031;-55
2023/08/07 05:07:58;;;;;;;4.00;2.28;;;14.30;99.90;;;;;;4985567;28;20051;-55
2023/08/07 05:10:24;;;;;;;8.98;2.20;;;14.40;99.90;;;;;;4988440;28;20033;-57
2023/08/07 05:12:55;;;;;;;3.38;1.83;;;14.40;99.90;;;;;;4985547;28;20042;-58
2023/08/07 05:15:22;;;;;;;5.90;2.28;;;14.50;99.90;;;;;;4986798;28;20031;-57
2023/08/07 05:17:48;;;;;;;6.22;2.25;;;14.60;99.90;;;;;;4986239;28;20022;-57
2023/08/07 05:20:14;;;;;;;5.32;2.22;;;14.60;99.90;;;;;;4984534;28;20495;-58
2023/08/07 05:22:39;;;;;;;4.65;2.15;;;14.60;99.90;;;;;;4988695;28;20683;-58
2023/08/07 05:25:05;;;;;;;4.30;1.73;;;14.70;99.90;;;;;;4984744;28;20049;-58
2023/08/07 05:27:30;;;;;;;3.60;1.42;;;14.80;99.90;;;;;;4985889;28;20049;-58
2023/08/07 05:29:56;;;;;;;5.22;2.80;;;14.80;99.90;;;;;;4985858;28;20646;-57
2023/08/07 05:32:22;;;;;;;10.82;2.15;;;14.80;99.90;;;;;;4985589;28;20046;-57
2023/08/07 05:34:47;;;;;;;3.42;1.92;;;14.90;99.90;;;;;;4985250;28;20033;-57
2023/08/07 05:37:13;;;;;;;6.47;2.28;;;15.00;99.90;;;;;;4983900;28;20436;-57
2023/08/07 05:39:39;;;;;;;7.47;1.83;;;15.00;99.90;;;;;;4988221;28;20551;-58
2023/08/07 05:42:05;;;;;;;6.50;2.45;;;15.00;99.90;;;;;;4985224;28;20110;-56
2023/08/07 05:44:30;;;;;;;5.00;2.28;;;15.10;99.90;;;;;;4986895;28;20033;-57
2023/08/07 05:46:56;;;;;;;6.82;1.88;;;15.10;99.90;;;;;;4984591;28;20444;-58
2023/08/07 05:49:21;;;;;;;5.43;2.45;;;15.20;99.90;;;;;;4985558;28;20093;-58
2023/08/07 05:51:47;;;;;;;4.57;2.50;;;15.20;99.90;;;;;;4984423;28;20567;-55
2023/08/07 05:54:12;;;;;;;4.15;2.25;;;15.30;99.90;;;;;;4980596;28;20436;-56
2023/08/07 05:56:38;;;;;;;7.68;2.20;;;15.30;99.90;;;;;;4987744;28;20018;-54
2023/08/07 05:59:05;;;;;;;5.25;1.63;;;15.30;99.90;;;;;;4983320;28;20397;-55
2023/08/07 06:01:31;;;;;;;9.00;3.05;;;15.30;99.90;;;;;;4980754;28;20105;-56
2023/08/07 06:03:59;;;;;;;3.47;2.03;;;15.30;99.90;;;;;;4984151;28;20567;-58
2023/08/07 06:06:27;;;;;;;8.95;2.53;;;15.40;99.90;;;;;;4981651;28;20105;-58
2023/08/07 06:08:54;;;;;;;10.60;2.83;;;15.40;99.90;;;;;;4983341;28;20434;-56
2023/08/07 06:11:19;;;;;;;9.65;2.42;;;15.40;99.90;;;;;;4983346;28;20030;-58
2023/08/07 06:13:45;;;;;;;5.85;2.17;;;15.40;99.90;;;;;;4982199;28;20022;-58
2023/08/07 06:16:10;;;;;;;7.10;2.75;;;15.40;99.90;;;;;;4984808;28;20030;-57
2023/08/07 06:18:36;;;;;;;8.50;2.85;;;15.40;99.90;;;;;;4980400;28;20073;-57
2023/08/07 06:21:03;;;;;;;4.20;1.98;;;15.50;99.90;;;;;;4985434;28;20030;-57
2023/08/07 06:23:29;;;;;;;6.22;2.20;;;15.50;99.90;;;;;;4987967;28;20026;-58
2023/08/07 06:25:55;;;;;;;6.20;2.35;;;15.50;99.90;;;;;;4987968;28;20026;-58
2023/08/07 06:28:21;;;;;;;6.45;2.53;;;15.50;99.90;;;;;;4989509;28;20030;-56
2023/08/07 06:30:47;;;;;;;8.00;2.92;;;15.50;99.90;;;;;;4989853;28;20472;-58
2023/08/07 06:33:12;;;;;;;7.03;2.90;;;15.50;99.90;;;;;;4991767;28;20442;-58
2023/08/07 06:35:39;;;;;;;12.73;2.83;;;15.50;99.90;;;;;;4990552;28;20026;-57
2023/08/07 06:38:05;;;;;;;6.72;2.47;;;15.50;99.90;;;;;;4989327;28;20556;-58
2023/08/07 06:40:30;;;;;;;10.80;2.25;;;15.60;99.90;;;;;;4991479;28;20397;-58
2023/08/07 06:42:56;;;;;;;9.30;2.33;;;15.60;99.90;;;;;;4988476;28;20084;-58
2023/08/07 06:45:21;;;;;;;13.73;3.50;;;15.60;99.90;;;;;;4983879;28;20050;-58
2023/08/07 06:47:47;;;;;;;9.02;2.92;;;15.60;99.90;;;;;;4987593;28;20093;-59
2023/08/07 06:50:14;;;;;;;8.55;2.63;;;15.60;99.90;;;;;;4983633;28;20033;-59
2023/08/07 06:52:40;;;;;;;13.77;3.17;;;15.70;99.90;;;;;;4981318;28;20027;-58
2023/08/07 06:55:06;;;;;;;10.90;3.05;;;15.70;99.90;;;;;;4984675;28;20029;-56
2023/08/07 06:57:32;;;;;;;8.93;2.75;;;15.80;99.90;;;;;;4988509;28;20037;-58
2023/08/07 06:59:58;;;;;;;15.07;3.95;;;15.80;99.90;;;;;;4988830;28;20195;-58
2023/08/07 07:02:23;;;;;;;7.88;3.22;;;15.80;99.90;;;;;;4988103;28;20036;-58
2023/08/07 07:04:49;;;;;;;6.50;2.63;;;15.80;99.90;;;;;;4984042;28;20022;-57
2023/08/07 07:07:14;;;;;;;8.60;2.58;;;15.90;99.90;;;;;;4985489;28;20027;-57
2023/08/07 07:09:40;;;;;;;10.63;3.90;;;15.90;99.90;;;;;;4986511;28;20030;-58
2023/08/07 07:12:06;;;;;;;12.15;2.95;;;15.90;99.90;;;;;;4986885;28;20038;-59
2023/08/07 07:14:33;;;;;;;13.07;3.75;;;16.00;99.90;;;;;;4985919;28;20202;-60
2023/08/07 07:16:59;;;;;;;9.25;2.85;;;16.00;99.90;;;;;;4985671;28;20026;-59
2023/08/07 07:19:24;;;;;;;10.57;3.28;;;16.00;99.90;;;;;;4986541;28;20519;-59
2023/08/07 07:21:50;;;;;;;12.63;3.50;;;16.10;99.90;;;;;;4984989;28;20516;-57
2023/08/07 07:24:16;;;;;;;6.43;3.50;;;16.10;99.90;;;;;;4991521;28;20175;-58
2023/08/07 07:26:41;;;;;;;11.32;3.13;;;16.20;99.90;;;;;;4981981;28;20105;-58
2023/08/07 07:29:07;;;;;;;13.15;3.78;;;16.20;99.90;;;;;;4991038;28;20037;-58
2023/08/07 07:31:32;;;;;;;10.70;2.78;;;16.20;99.90;;;;;;4983000;28;20035;-56
2023/08/07 07:33:58;;;;;;;9.60;2.63;;;16.10;99.90;;;;;;4990024;28;20065;-56
2023/08/07 07:36:24;;;;;;;11.90;2.78;;;16.10;99.90;;;;;;4984319;28;20022;-59
2023/08/07 07:38:49;;;;;;;8.40;3.60;;;16.10;99.90;;;;;;4987500;28;20042;-56
2023/08/07 07:41:15;;;;;;;9.52;3.22;;;16.10;99.90;;;;;;4990837;28;20022;-57
2023/08/07 07:43:41;;;;;;;5.43;2.55;;;16.20;99.90;;;;;;4985405;28;20026;-57
2023/08/07 07:46:07;;;;;;;7.90;2.60;;;16.20;99.90;;;;;;4985606;28;20114;-56
2023/08/07 07:48:32;;;;;;;7.60;3.25;;;16.30;99.90;;;;;;4984808;28;20062;-57
2023/08/07 07:51:02;;;;;;;10.65;3.45;;;16.40;99.90;;;;;;4985372;28;20045;-58
2023/08/07 07:53:28;;;;;;;11.43;2.90;;;16.50;99.90;;;;;;4987474;28;20500;-56
2023/08/07 07:55:54;;;;;;;7.45;2.58;;;16.70;99.90;;;;;;4985081;28;20034;-58
2023/08/07 07:58:20;;;;;;;9.40;2.80;;;16.80;99.90;;;;;;4987968;28;20035;-56
2023/08/07 08:00:46;;;;;;;10.27;3.60;;;16.90;99.90;;;;;;4986040;28;20035;-58
2023/08/07 08:03:12;;;;;;;8.75;2.58;;;16.80;99.90;;;;;;4983786;28;20499;-58
2023/08/07 08:05:38;;;;;;;5.93;2.50;;;16.70;99.90;;;;;;4985186;28;20030;-57
2023/08/07 08:08:05;;;;;;;7.43;3.08;;;16.60;99.90;;;;;;4981668;28;20080;-55
2023/08/07 08:10:30;;;;;;;6.07;2.38;;;16.60;99.90;;;;;;4985426;28;20563;-57
2023/08/07 08:12:56;;;;;;;10.18;3.30;;;16.40;99.90;;;;;;4982727;28;20035;-56
2023/08/07 08:15:22;;;;;;;7.55;2.88;;;16.30;99.90;;;;;;4988308;28;20033;-59
2023/08/07 08:17:48;;;;;;;12.10;3.75;;;16.20;99.90;;;;;;4984089;28;20026;-57
2023/08/07 08:20:18;;;;;;;13.02;3.22;;;16.20;99.90;;;;;;4985628;28;20587;-57
2023/08/07 08:22:46;;;;;;;10.60;2.47;;;16.30;99.90;;;;;;4987682;28;20045;-58
2023/08/07 08:25:13;;;;;;;8.52;2.80;;;16.40;99.90;;;;;;4986155;28;20562;-57
2023/08/07 08:27:39;;;;;;;9.93;2.95;;;16.40;99.90;;;;;;4986215;28;20471;-56
2023/08/07 08:30:07;;;;;;;7.10;2.42;;;16.40;99.90;;;;;;4984956;28;20033;-57
2023/08/07 08:32:34;;;;;;;9.48;2.33;;;16.30;99.90;;;;;;4987871;28;20134;-58
2023/08/07 08:35:00;;;;;;;7.70;2.50;;;16.30;99.90;;;;;;4985290;28;20114;-57
2023/08/07 08:37:27;;;;;;;11.25;3.00;;;16.30;99.90;;;;;;4988539;28;20106;-57
2023/08/07 08:39:52;;;;;;;5.70;2.60;;;16.30;99.90;;;;;;4989407;28;20030;-56
2023/08/07 08:42:19;;;;;;;7.90;2.35;;;16.30;99.90;;;;;;4989235;28;20020;-57
2023/08/07 08:44:50;;;;;;;9.30;2.50;;;16.20;99.90;;;;;;4988162;28;20030;-58
2023/08/07 08:47:16;;;;;;;11.82;3.35;;;16.20;99.90;;;;;;4984039;28;20065;-57
2023/08/07 08:50:02;;;;;;;11.00;2.58;;;16.10;99.90;;;;;;4986526;28;20022;-58
2023/08/07 08:52:29;;;;;;;11.40;3.15;;;16.00;99.90;;;;;;4984269;28;20066;-58
2023/08/07 08:54:56;;;;;;;6.88;2.85;;;15.90;99.90;;;;;;4986606;28;20109;-57
2023/08/07 08:57:23;;;;;;;12.13;3.47;;;15.80;99.90;;;;;;4982678;28;20569;-58
2023/08/07 08:59:49;;;;;;;10.85;2.92;;;15.80;99.90;;;;;;4989198;28;20481;-57
2023/08/07 09:02:15;;;;;;;14.90;3.80;;;15.80;99.90;;;;;;4979346;28;20033;-61
2023/08/07 09:04:42;;;;;;;8.10;2.88;;;15.80;99.90;;;;;;4983324;28;20158;-57
2023/08/07 09:07:09;;;;;;;8.35;2.30;;;15.80;99.90;;;;;;4985335;28;20516;-57
2023/08/07 09:09:35;;;;;;;9.60;3.60;;;15.90;99.90;;;;;;4985783;28;20089;-58
2023/08/07 09:12:02;;;;;;;12.23;3.88;;;15.90;99.90;;;;;;4987797;28;20026;-58
2023/08/07 09:14:33;;;;;;;9.98;3.17;;;16.10;99.90;;;;;;4985775;28;20114;-58
2023/08/07 09:17:01;;;;;;;12.02;3.58;;;16.20;99.90;;;;;;4988017;28;20022;-59
2023/08/07 09:19:27;;;;;;;10.07;3.22;;;16.40;99.90;;;;;;4985764;28;20075;-57
2023/08/07 09:21:53;;;;;;;9.43;2.88;;;16.50;99.90;;;;;;4986141;28;20374;-57
2023/08/07 09:24:21;;;;;;;12.55;3.53;;;16.60;99.90;;;;;;4985863;28;20487;-58
2023/08/07 09:26:47;;;;;;;10.57;3.08;;;16.50;99.90;;;;;;4980258;28;20018;-58
2023/08/07 09:29:13;;;;;;;9.05;2.53;;;16.50;99.90;;;;;;4985668;28;20172;-59
2023/08/07 09:31:45;;;;;;;12.70;2.90;;;16.30;99.90;;;;;;4981527;28;20035;-58
2023/08/07 09:34:11;;;;;;;9.77;3.55;;;16.00;99.90;;;;;;4986065;28;20174;-58
2023/08/07 09:36:38;;;;;;;8.43;3.33;;;15.80;99.90;;;;;;4982678;28;20121;-58
2023/08/07 09:39:04;;;;;;;8.63;3.38;;;15.70;99.90;;;;;;4985587;28;20149;-58
2023/08/07 09:41:30;;;;;;;9.88;2.80;;;15.70;99.90;;;;;;4986141;28;20018;-58
2023/08/07 09:43:57;;;;;;;4.00;2.38;;;15.70;99.90;;;;;;4983453;28;20022;-58
2023/08/07 09:46:26;;;;;;;9.00;3.15;;;15.80;99.90;;;;;;4988248;28;20608;-58
2023/08/07 09:48:57;;;;;;;8.20;2.83;;;16.10;99.90;;;;;;4971383;28;20034;-57
2023/08/07 09:51:23;;;;;;;10.45;2.78;;;16.40;99.90;;;;;;4987056;28;20022;-54
2023/08/07 09:53:49;;;;;;;8.13;2.88;;;16.70;99.90;;;;;;4975486;28;20707;-55
2023/08/07 09:56:14;;;;;;;9.13;2.28;;;16.90;99.90;;;;;;4986348;28;20058;-58
2023/08/07 09:58:46;;;;;;;11.65;2.72;;;17.10;99.90;;;;;;4985891;28;20064;-59
2023/08/07 10:01:12;;;;;;;7.53;2.25;;;17.30;99.90;;;;;;4982664;28;20436;-56
2023/08/07 10:03:38;;;;;;;9.20;2.92;;;17.40;99.90;;;;;;4980135;28;20122;-58
2023/08/07 10:06:04;;;;;;;9.05;3.30;;;17.50;99.90;;;;;;4983401;28;20180;-59
2023/08/07 10:08:31;;;;;;;13.50;3.63;;;17.50;99.90;;;;;;4984210;28;20026;-57
2023/08/07 10:10:58;;;;;;;11.02;2.65;;;17.40;99.90;;;;;;4986738;28;20662;-52
2023/08/07 10:13:24;;;;;;;11.23;2.50;;;17.40;99.90;;;;;;4985726;28;20026;-57
2023/08/07 10:15:50;;;;;;;9.05;2.78;;;17.40;99.90;;;;;;4973927;28;20053;-59
2023/08/07 10:18:16;;;;;;;12.80;2.63;;;17.50;99.90;;;;;;4988184;28;20026;-55
2023/08/07 10:20:43;;;;;;;13.88;2.58;;;17.50;99.90;;;;;;4986934;28;20026;-58
2023/08/07 10:23:11;;;;;;;9.52;2.85;;;17.50;99.90;;;;;;4987891;28;20022;-54
2023/08/07 10:25:43;;;;;;;13.25;3.58;;;17.70;99.90;;;;;;4986930;28;20041;-57
2023/08/07 10:28:12;;;;;;;9.45;2.88;;;17.80;99.90;;;;;;4975353;28;20022;-55
2023/08/07 10:30:40;;;;;;;8.18;2.83;;;17.70;99.90;;;;;;4987050;28;20493;-57
2023/08/07 10:33:07;;;;;;;5.25;2.20;;;17.80;99.90;;;;;;4987932;28;20034;-58
2023/08/07 10:35:33;;;;;;;4.82;1.90;;;17.80;99.90;;;;;;4986145;28;20026;-57
2023/08/07 10:38:10;;;;;;;5.18;3.05;;;17.80;99.90;;;;;;4985219;28;20022;-56
2023/08/07 10:41:06;;;;;;;7.65;3.40;;;17.60;99.90;;;;;;4986712;28;20023;-55
2023/08/07 10:43:43;;;;;;;9.90;2.88;;;17.70;99.90;;;;;;4981571;28;20733;-53
2023/08/07 10:46:19;;;;;;;5.93;2.00;;;17.70;99.90;;;;;;4982997;28;20034;-58
2023/08/07 10:48:49;;;;;;;4.65;2.20;;;17.50;99.90;;;;;;4982353;28;20522;-56
2023/08/07 10:51:16;;;;;;;7.47;2.53;;;17.40;99.90;;;;;;4984051;28;20022;-58
2023/08/07 10:53:48;;;;;;;6.78;2.05;;;17.30;99.90;;;;;;4982809;28;20026;-58
2023/08/07 10:56:20;;;;;;;7.05;2.22;;;17.40;99.90;;;;;;4984100;28;20068;-56
2023/08/07 10:58:52;;;;;;;7.00;2.30;;;17.60;99.90;;;;;;4981274;28;20027;-55
2023/08/07 11:01:26;;;;;;;11.43;2.65;;;17.70;99.90;;;;;;4984079;28;20026;-55
2023/08/07 11:04:00;;;;;;;13.25;3.13;;;17.90;99.90;;;;;;4971599;28;20113;-58
2023/08/07 11:06:30;;;;;;;4.75;2.17;;;17.90;99.90;;;;;;4981750;28;20022;-55
2023/08/07 11:08:57;;;;;;;9.32;2.33;;;18.00;99.90;;;;;;4987309;28;20489;-56
2023/08/07 11:11:23;;;;;;;9.85;3.22;;;18.00;99.90;;;;;;4988117;28;20034;-57
2023/08/07 11:13:48;;;;;;;5.78;2.22;;;18.10;99.90;;;;;;4989958;28;20042;-57
2023/08/07 11:16:14;;;;;;;8.27;1.88;;;18.00;99.90;;;;;;4987472;28;20026;-51
2023/08/07 11:18:43;;;;;;;8.65;2.80;;;18.00;99.90;;;;;;4989261;28;20034;-54
2023/08/07 11:21:12;;;;;;;7.32;2.08;;;17.90;99.90;;;;;;4988121;28;20030;-54
2023/08/07 11:23:39;;;;;;;14.13;2.80;;;17.70;99.90;;;;;;4985793;28;20089;-52
2023/08/07 11:26:05;;;;;;;6.85;1.85;;;17.60;99.90;;;;;;4988424;28;20036;-56
2023/08/07 11:28:30;;;;;;;8.10;2.10;;;17.60;99.90;;;;;;4985594;28;20037;-56
2023/08/07 11:30:57;;;;;;;5.47;1.85;;;17.70;99.90;;;;;;4986409;28;20034;-57
2023/08/07 11:33:26;;;;;;;6.25;1.95;;;17.80;99.90;;;;;;4991427;28;20392;-56
2023/08/07 11:35:52;;;;;;;4.35;1.42;;;17.90;99.90;;;;;;4982058;28;20497;-54
2023/08/07 11:38:34;;;;;;;6.28;2.42;;;17.90;99.90;;;;;;4991871;28;20041;-57
2023/08/07 11:41:02;;;;;;;6.32;1.50;;;17.90;99.90;;;;;;4982716;28;20033;-52
2023/08/07 11:43:31;;;;;;;9.00;1.88;;;17.90;99.90;;;;;;4991627;28;20397;-57
2023/08/07 11:46:01;;;;;;;7.57;1.88;;;17.90;99.90;;;;;;4983656;28;20073;-57
2023/08/07 11:48:28;;;;;;;8.40;2.20;;;17.80;99.90;;;;;;4989405;28;20027;-58
2023/08/07 11:50:55;;;;;;;11.75;1.75;;;17.80;99.90;;;;;;4983640;28;20101;-58
2023/08/07 11:53:21;;;;;;;3.65;1.63;;;17.70;99.90;;;;;;4991708;28;20026;-55
2023/08/07 11:55:56;;;;;;;3.53;1.70;;;17.60;99.90;;;;;;4984266;28;20038;-57
2023/08/07 11:58:22;;;;;;;9.48;2.70;;;17.60;99.90;;;;;;4989103;28;20038;-57
2023/08/07 12:00:48;;;;;;;6.93;1.83;;;17.60;99.90;;;;;;4984275;28;20081;-53
2023/08/07 12:03:34;;;;;;;6.43;2.20;;;17.60;99.90;;;;;;4987138;28;20113;-57
2023/08/07 12:06:02;;;;;;;4.80;1.58;;;17.70;99.90;;;;;;4976374;28;20457;-57
2023/08/07 12:08:37;;;;;;;7.70;2.53;;;17.80;99.90;;;;;;4987465;28;20027;-57
2023/08/07 12:11:04;;;;;;;4.97;1.67;;;17.80;99.90;;;;;;4984958;28;20030;-52
2023/08/07 12:13:34;;;;;;;8.68;2.03;;;17.70;99.90;;;;;;4986415;28;20554;-56
2023/08/07 12:16:01;;;;;;;4.88;1.48;;;17.60;99.90;;;;;;4982989;28;20022;-59
2023/08/07 12:18:27;;;;;;;9.05;1.70;;;17.60;99.90;;;;;;4985594;28;20041;-57
2023/08/07 12:21:01;;;;;;;4.72;1.38;;;17.50;99.90;;;;;;4983400;28;20033;-57
2023/08/07 12:23:27;;;;;;;5.53;1.92;;;17.50;99.90;;;;;;4985660;28;20026;-54
2023/08/07 12:25:53;;;;;;;3.20;2.20;;;17.50;99.90;;;;;;4984713;28;20042;-54
2023/08/07 12:28:19;;;;;;;7.70;2.38;;;17.40;99.90;;;;;;4985455;28;20031;-56
2023/08/07 12:30:46;;;;;;;7.18;1.52;;;17.10;99.90;;;;;;4984849;28;20520;-56
2023/08/07 12:33:12;;;;;;;9.82;2.08;;;16.80;99.90;;;;;;4990053;28;20030;-57
2023/08/07 12:35:37;;;;;;;8.00;2.05;;;16.40;99.90;;;;;;4985377;28;20026;-57
2023/08/07 12:38:03;;;;;;;4.65;2.00;;;16.20;99.90;;;;;;4990466;28;20050;-59
2023/08/07 12:40:31;;;;;;;7.32;2.50;;;16.10;99.90;;;;;;4984912;28;20022;-56
2023/08/07 12:42:57;;;;;;;6.28;1.58;;;16.10;99.90;;;;;;4990073;28;20022;-56
2023/08/07 12:45:23;;;;;;;7.10;1.70;;;16.20;99.90;;;;;;4984890;28;20366;-58